sensor_id;sensor_type;location;lat;lon;timestamp;temperature;humidity
34829;DHT22;21042;47.620;12.188;2022-09-09T00:02:01;13.90;99.90
34829;DHT22;21042;47.620;12.188;2022-09-09T00:04:35;13.90;99.90
34829;DHT22;21042;47.620;12.188;2022-09-09T00:07:21;13.90;99.90
34829;DHT22;21042;47.620;12.188;2022-09-09T00:12:46;13.80;99.90
34829;DHT22;21042;47.620;12.188;2022-09-09T00:15:20;13.80;99.90
34829;DHT22;21042;47.620;12.188;2022-09-09T00:18:07;13.80;99.90
34829;DHT22;21042;47.620;12.188;2022-09-09T00:21:01;13.80;99.90
34829;DHT22;21042;47.620;12.188;2022-09-09T00:23:39;13.80;99.90
34829;DHT22;21042;47.620;12.188;2022-09-09T00:34:20;13.80;99.90
34829;DHT22;21042;47.620;12.188;2022-09-09T00:36:50;13.80;99.90
34829;DHT22;21042;47.620;12.188;2022-09-09T00:39:37;13.80;99.90
34829;DHT22;21042;47.620;12.188;2022-09-09T00:45:19;13.70;99.90
34829;DHT22;21042;47.620;12.188;2022-09-09T00:47:53;13.60;99.90
34829;DHT22;21042;47.620;12.188;2022-09-09T00:53:19;13.70;99.90
34829;DHT22;21042;47.620;12.188;2022-09-09T00:56:13;13.70;99.90
34829;DHT22;21042;47.620;12.188;2022-09-09T00:59:00;13.70;99.90
34829;DHT22;21042;47.620;12.188;2022-09-09T01:01:30;13.70;99.90
34829;DHT22;21042;47.620;12.188;2022-09-09T01:03:57;13.70;99.90
34829;DHT22;21042;47.620;12.188;2022-09-09T01:06:32;13.80;99.90
34829;DHT22;21042;47.620;12.188;2022-09-09T01:16:58;13.90;99.90
34829;DHT22;21042;47.620;12.188;2022-09-09T01:19:39;13.80;99.90
34829;DHT22;21042;47.620;12.188;2022-09-09T01:25:18;13.80;99.90
34829;DHT22;21042;47.620;12.188;2022-09-09T01:28:08;13.80;99.90
34829;DHT22;21042;47.620;12.188;2022-09-09T01:30:39;13.80;99.90
34829;DHT22;21042;47.620;12.188;2022-09-09T01:33:15;13.90;99.90
34829;DHT22;21042;47.620;12.188;2022-09-09T01:35:49;13.80;99.90
34829;DHT22;21042;47.620;12.188;2022-09-09T01:38:19;13.80;99.90
34829;DHT22;21042;47.620;12.188;2022-09-09T01:40:47;13.80;99.90
34829;DHT22;21042;47.620;12.188;2022-09-09T01:43:15;13.90;99.90
34829;DHT22;21042;47.620;12.188;2022-09-09T01:45:42;13.90;99.90
34829;DHT22;21042;47.620;12.188;2022-09-09T01:48:10;13.90;99.90
34829;DHT22;21042;47.620;12.188;2022-09-09T01:50:52;13.90;99.90
34829;DHT22;21042;47.620;12.188;2022-09-09T01:53:21;13.90;99.90
34829;DHT22;21042;47.620;12.188;2022-09-09T02:04:44;13.90;99.90
34829;DHT22;21042;47.620;12.188;2022-09-09T02:07:42;13.90;99.90
34829;DHT22;21042;47.620;12.188;2022-09-09T02:10:26;13.90;99.90
34829;DHT22;21042;47.620;12.188;2022-09-09T02:13:10;14.00;99.90
34829;DHT22;21042;47.620;12.188;2022-09-09T02:16:00;13.90;99.90
34829;DHT22;21042;47.620;12.188;2022-09-09T02:21:28;13.90;99.90
34829;DHT22;21042;47.620;12.188;2022-09-09T02:23:57;13.90;99.90
34829;DHT22;21042;47.620;12.188;2022-09-09T02:26:27;13.90;99.90
34829;DHT22;21042;47.620;12.188;2022-09-09T02:29:03;13.80;99.90
34829;DHT22;21042;47.620;12.188;2022-09-09T02:31:33;13.80;99.90
34829;DHT22;21042;47.620;12.188;2022-09-09T02:34:07;13.80;99.90
34829;DHT22;21042;47.620;12.188;2022-09-09T02:36:38;13.80;99.90
34829;DHT22;21042;47.620;12.188;2022-09-09T02:39:08;13.80;99.90
34829;DHT22;21042;47.620;12.188;2022-09-09T02:41:40;13.80;99.90
34829;DHT22;21042;47.620;12.188;2022-09-09T02:44:16;13.80;99.90
34829;DHT22;21042;47.620;12.188;2022-09-09T02:54:40;13.90;99.90
34829;DHT22;21042;47.620;12.188;2022-09-09T02:57:20;13.90;99.90
34829;DHT22;21042;47.620;12.188;2022-09-09T02:59:49;13.90;99.90
34829;DHT22;21042;47.620;12.188;2022-09-09T03:02:16;14.00;99.90
34829;DHT22;21042;47.620;12.188;2022-09-09T03:04:46;13.90;99.90
34829;DHT22;21042;47.620;12.188;2022-09-09T03:07:18;14.00;99.90
34829;DHT22;21042;47.620;12.188;2022-09-09T03:09:46;13.90;99.90
34829;DHT22;21042;47.620;12.188;2022-09-09T03:12:13;13.90;99.90
34829;DHT22;21042;47.620;12.188;2022-09-09T03:14:40;13.90;99.90
34829;DHT22;21042;47.620;12.188;2022-09-09T03:17:07;13.90;99.90
34829;DHT22;21042;47.620;12.188;2022-09-09T03:19:38;13.90;99.90
34829;DHT22;21042;47.620;12.188;2022-09-09T03:22:10;13.90;99.90
34829;DHT22;21042;47.620;12.188;2022-09-09T03:24:39;13.90;99.90
34829;DHT22;21042;47.620;12.188;2022-09-09T03:27:07;13.90;99.90
34829;DHT22;21042;47.620;12.188;2022-09-09T03:29:36;13.90;99.90
34829;DHT22;21042;47.620;12.188;2022-09-09T03:32:06;13.90;99.90
34829;DHT22;21042;47.620;12.188;2022-09-09T03:34:34;13.90;99.90
34829;DHT22;21042;47.620;12.188;2022-09-09T03:37:00;13.90;99.90
34829;DHT22;21042;47.620;12.188;2022-09-09T03:39:27;13.90;99.90
34829;DHT22;21042;47.620;12.188;2022-09-09T03:41:55;13.80;99.90
34829;DHT22;21042;47.620;12.188;2022-09-09T03:44:22;13.80;99.90
34829;DHT22;21042;47.620;12.188;2022-09-09T03:46:49;13.80;99.90
34829;DHT22;21042;47.620;12.188;2022-09-09T03:49:16;13.80;99.90
34829;DHT22;21042;47.620;12.188;2022-09-09T03:51:43;13.80;99.90
34829;DHT22;21042;47.620;12.188;2022-09-09T03:54:12;13.80;99.90
34829;DHT22;21042;47.620;12.188;2022-09-09T03:56:39;13.80;99.90
34829;DHT22;21042;47.620;12.188;2022-09-09T03:59:09;13.80;99.90
34829;DHT22;21042;47.620;12.188;2022-09-09T04:01:36;13.80;99.90
34829;DHT22;21042;47.620;12.188;2022-09-09T04:04:03;13.80;99.90
34829;DHT22;21042;47.620;12.188;2022-09-09T04:06:29;13.80;99.90
34829;DHT22;21042;47.620;12.188;2022-09-09T04:08:56;13.70;99.90
34829;DHT22;21042;47.620;12.188;2022-09-09T04:11:25;13.80;99.90
34829;DHT22;21042;47.620;12.188;2022-09-09T04:13:54;13.80;99.90
34829;DHT22;21042;47.620;12.188;2022-09-09T04:16:21;13.80;99.90
34829;DHT22;21042;47.620;12.188;2022-09-09T04:18:48;13.70;99.90
34829;DHT22;21042;47.620;12.188;2022-09-09T04:21:16;13.70;99.90
34829;DHT22;21042;47.620;12.188;2022-09-09T04:23:44;13.70;99.90
34829;DHT22;21042;47.620;12.188;2022-09-09T04:26:13;13.80;99.90
34829;DHT22;21042;47.620;12.188;2022-09-09T04:28:40;13.80;99.90
34829;DHT22;21042;47.620;12.188;2022-09-09T04:31:18;13.80;99.90
34829;DHT22;21042;47.620;12.188;2022-09-09T04:33:51;13.80;99.90
34829;DHT22;21042;47.620;12.188;2022-09-09T04:36:19;13.80;99.90
34829;DHT22;21042;47.620;12.188;2022-09-09T04:38:48;13.70;99.90
34829;DHT22;21042;47.620;12.188;2022-09-09T04:41:15;13.80;99.90
34829;DHT22;21042;47.620;12.188;2022-09-09T04:43:44;13.80;99.90
34829;DHT22;21042;47.620;12.188;2022-09-09T04:46:13;13.90;99.90
34829;DHT22;21042;47.620;12.188;2022-09-09T04:48:43;13.90;99.90
34829;DHT22;21042;47.620;12.188;2022-09-09T04:51:13;13.90;99.90
34829;DHT22;21042;47.620;12.188;2022-09-09T04:53:41;13.90;99.90
34829;DHT22;21042;47.620;12.188;2022-09-09T04:56:13;13.90;99.90
34829;DHT22;21042;47.620;12.188;2022-09-09T04:58:46;13.90;99.90
34829;DHT22;21042;47.620;12.188;2022-09-09T05:01:16;13.90;99.90
34829;DHT22;21042;47.620;12.188;2022-09-09T05:03:45;14.00;99.90
34829;DHT22;21042;47.620;12.188;2022-09-09T05:06:18;14.00;99.90
34829;DHT22;21042;47.620;12.188;2022-09-09T05:08:47;14.00;99.90
34829;DHT22;21042;47.620;12.188;2022-09-09T05:11:23;14.00;99.90
34829;DHT22;21042;47.620;12.188;2022-09-09T05:13:53;14.00;99.90
34829;DHT22;21042;47.620;12.188;2022-09-09T05:16:21;14.00;99.90
34829;DHT22;21042;47.620;12.188;2022-09-09T05:18:49;14.00;99.90
34829;DHT22;21042;47.620;12.188;2022-09-09T05:21:20;14.10;99.90
34829;DHT22;21042;47.620;12.188;2022-09-09T05:23:47;14.10;99.90
34829;DHT22;21042;47.620;12.188;2022-09-09T05:26:17;14.10;99.90
34829;DHT22;21042;47.620;12.188;2022-09-09T05:28:47;14.10;99.90
34829;DHT22;21042;47.620;12.188;2022-09-09T05:31:16;14.10;99.90
34829;DHT22;21042;47.620;12.188;2022-09-09T05:33:46;14.10;99.90
34829;DHT22;21042;47.620;12.188;2022-09-09T05:36:19;14.10;99.90
34829;DHT22;21042;47.620;12.188;2022-09-09T05:38:49;14.10;99.90
34829;DHT22;21042;47.620;12.188;2022-09-09T05:41:19;14.10;99.90
34829;DHT22;21042;47.620;12.188;2022-09-09T05:43:46;14.10;99.90
34829;DHT22;21042;47.620;12.188;2022-09-09T05:48:46;14.10;99.90
34829;DHT22;21042;47.620;12.188;2022-09-09T05:51:20;14.00;99.90
34829;DHT22;21042;47.620;12.188;2022-09-09T05:53:48;14.00;99.90
34829;DHT22;21042;47.620;12.188;2022-09-09T05:56:18;14.00;99.90
34829;DHT22;21042;47.620;12.188;2022-09-09T05:58:46;14.10;99.90
34829;DHT22;21042;47.620;12.188;2022-09-09T06:01:38;14.10;99.90
34829;DHT22;21042;47.620;12.188;2022-09-09T06:04:09;14.10;99.90
34829;DHT22;21042;47.620;12.188;2022-09-09T06:06:38;14.20;99.90
34829;DHT22;21042;47.620;12.188;2022-09-09T06:09:11;14.20;99.90
34829;DHT22;21042;47.620;12.188;2022-09-09T06:11:42;14.20;99.90
34829;DHT22;21042;47.620;12.188;2022-09-09T06:14:10;14.20;99.90
34829;DHT22;21042;47.620;12.188;2022-09-09T06:16:38;14.20;99.90
34829;DHT22;21042;47.620;12.188;2022-09-09T06:19:12;14.20;99.90
34829;DHT22;21042;47.620;12.188;2022-09-09T06:21:39;14.20;99.90
34829;DHT22;21042;47.620;12.188;2022-09-09T06:24:08;14.10;99.90
34829;DHT22;21042;47.620;12.188;2022-09-09T06:34:20;14.10;99.90
34829;DHT22;21042;47.620;12.188;2022-09-09T06:36:52;14.10;99.90
34829;DHT22;21042;47.620;12.188;2022-09-09T06:39:18;14.20;99.90
34829;DHT22;21042;47.620;12.188;2022-09-09T06:41:45;14.20;99.90
34829;DHT22;21042;47.620;12.188;2022-09-09T06:44:32;14.20;99.90
34829;DHT22;21042;47.620;12.188;2022-09-09T06:47:02;14.20;99.90
34829;DHT22;21042;47.620;12.188;2022-09-09T06:49:30;14.20;99.90
34829;DHT22;21042;47.620;12.188;2022-09-09T06:51:57;14.30;99.90
34829;DHT22;21042;47.620;12.188;2022-09-09T06:54:24;14.30;99.90
34829;DHT22;21042;47.620;12.188;2022-09-09T06:56:52;14.30;99.90
34829;DHT22;21042;47.620;12.188;2022-09-09T06:59:22;14.30;99.90
34829;DHT22;21042;47.620;12.188;2022-09-09T07:01:52;14.30;99.90
34829;DHT22;21042;47.620;12.188;2022-09-09T07:04:22;14.30;99.90
34829;DHT22;21042;47.620;12.188;2022-09-09T07:06:49;14.40;99.90
34829;DHT22;21042;47.620;12.188;2022-09-09T07:09:20;14.30;99.90
34829;DHT22;21042;47.620;12.188;2022-09-09T07:11:51;14.30;99.90
34829;DHT22;21042;47.620;12.188;2022-09-09T07:14:22;14.30;99.90
34829;DHT22;21042;47.620;12.188;2022-09-09T07:16:56;14.30;99.90
34829;DHT22;21042;47.620;12.188;2022-09-09T07:19:26;14.30;99.90
34829;DHT22;21042;47.620;12.188;2022-09-09T07:21:54;14.40;99.90
34829;DHT22;21042;47.620;12.188;2022-09-09T07:24:23;14.40;99.90
34829;DHT22;21042;47.620;12.188;2022-09-09T07:26:51;14.40;99.90
34829;DHT22;21042;47.620;12.188;2022-09-09T07:29:19;14.40;99.90
34829;DHT22;21042;47.620;12.188;2022-09-09T07:31:47;14.50;99.90
34829;DHT22;21042;47.620;12.188;2022-09-09T07:34:20;14.50;99.90
34829;DHT22;21042;47.620;12.188;2022-09-09T07:36:46;14.50;99.90
34829;DHT22;21042;47.620;12.188;2022-09-09T07:39:14;14.50;99.90
34829;DHT22;21042;47.620;12.188;2022-09-09T07:41:48;14.60;99.90
34829;DHT22;21042;47.620;12.188;2022-09-09T07:44:20;14.60;99.90
34829;DHT22;21042;47.620;12.188;2022-09-09T07:46:51;14.60;99.90
34829;DHT22;21042;47.620;12.188;2022-09-09T07:49:23;14.60;99.90
34829;DHT22;21042;47.620;12.188;2022-09-09T07:51:59;14.60;99.90
34829;DHT22;21042;47.620;12.188;2022-09-09T07:54:25;14.60;99.90
34829;DHT22;21042;47.620;12.188;2022-09-09T07:56:52;14.50;99.90
34829;DHT22;21042;47.620;12.188;2022-09-09T07:59:22;14.60;99.90
34829;DHT22;21042;47.620;12.188;2022-09-09T08:01:52;14.60;99.90
34829;DHT22;21042;47.620;12.188;2022-09-09T08:04:26;14.70;99.90
34829;DHT22;21042;47.620;12.188;2022-09-09T08:06:57;14.70;99.90
34829;DHT22;21042;47.620;12.188;2022-09-09T08:09:26;14.80;99.90
34829;DHT22;21042;47.620;12.188;2022-09-09T08:12:07;14.80;99.90
34829;DHT22;21042;47.620;12.188;2022-09-09T08:14:34;14.80;99.90
34829;DHT22;21042;47.620;12.188;2022-09-09T08:17:02;14.80;99.90
34829;DHT22;21042;47.620;12.188;2022-09-09T08:19:31;14.80;99.90
34829;DHT22;21042;47.620;12.188;2022-09-09T08:22:01;14.90;99.90
34829;DHT22;21042;47.620;12.188;2022-09-09T08:24:30;14.90;99.90
34829;DHT22;21042;47.620;12.188;2022-09-09T08:26:57;15.00;99.90
34829;DHT22;21042;47.620;12.188;2022-09-09T08:29:24;15.10;99.90
34829;DHT22;21042;47.620;12.188;2022-09-09T08:31:55;15.10;99.90
34829;DHT22;21042;47.620;12.188;2022-09-09T08:34:24;15.10;99.90
34829;DHT22;21042;47.620;12.188;2022-09-09T08:36:52;15.10;99.90
34829;DHT22;21042;47.620;12.188;2022-09-09T08:39:23;15.20;99.90
34829;DHT22;21042;47.620;12.188;2022-09-09T08:58:26;15.50;99.90
34829;DHT22;21042;47.620;12.188;2022-09-09T09:10:15;15.70;99.90
34829;DHT22;21042;47.620;12.188;2022-09-09T09:13:19;15.60;99.90
34829;DHT22;21042;47.620;12.188;2022-09-09T09:15:54;15.60;99.90
34829;DHT22;21042;47.620;12.188;2022-09-09T09:18:23;15.60;99.90
34829;DHT22;21042;47.620;12.188;2022-09-09T09:21:07;15.60;99.90
34829;DHT22;21042;47.620;12.188;2022-09-09T09:23:58;15.50;99.90
34829;DHT22;21042;47.620;12.188;2022-09-09T09:26:34;15.50;99.90
34829;DHT22;21042;47.620;12.188;2022-09-09T09:29:17;15.50;99.90
34829;DHT22;21042;47.620;12.188;2022-09-09T09:31:56;15.40;99.90
34829;DHT22;21042;47.620;12.188;2022-09-09T09:34:25;15.40;99.90
34829;DHT22;21042;47.620;12.188;2022-09-09T09:36:59;15.50;99.90
34829;DHT22;21042;47.620;12.188;2022-09-09T09:39:33;15.60;99.90
34829;DHT22;21042;47.620;12.188;2022-09-09T09:42:25;15.60;99.90
34829;DHT22;21042;47.620;12.188;2022-09-09T09:44:55;15.70;99.90
34829;DHT22;21042;47.620;12.188;2022-09-09T09:47:23;15.70;99.90
34829;DHT22;21042;47.620;12.188;2022-09-09T09:50:19;15.70;99.90
34829;DHT22;21042;47.620;12.188;2022-09-09T09:52:57;15.80;99.90
34829;DHT22;21042;47.620;12.188;2022-09-09T09:55:29;15.90;99.90
34829;DHT22;21042;47.620;12.188;2022-09-09T09:58:06;15.90;99.90
34829;DHT22;21042;47.620;12.188;2022-09-09T10:00:34;16.00;99.90
34829;DHT22;21042;47.620;12.188;2022-09-09T10:03:22;16.10;99.90
34829;DHT22;21042;47.620;12.188;2022-09-09T10:05:50;16.10;99.90
34829;DHT22;21042;47.620;12.188;2022-09-09T10:08:18;16.20;99.90
34829;DHT22;21042;47.620;12.188;2022-09-09T10:11:09;16.30;99.90
34829;DHT22;21042;47.620;12.188;2022-09-09T10:16:31;16.40;99.90
34829;DHT22;21042;47.620;12.188;2022-09-09T10:19:18;16.50;99.90
34829;DHT22;21042;47.620;12.188;2022-09-09T10:30:20;16.50;99.90
34829;DHT22;21042;47.620;12.188;2022-09-09T10:35:30;16.30;99.90
34829;DHT22;21042;47.620;12.188;2022-09-09T10:38:11;16.10;99.90
34829;DHT22;21042;47.620;12.188;2022-09-09T10:40:48;16.10;99.90
34829;DHT22;21042;47.620;12.188;2022-09-09T10:46:22;15.90;99.90
34829;DHT22;21042;47.620;12.188;2022-09-09T10:54:20;15.90;99.90
34829;DHT22;21042;47.620;12.188;2022-09-09T10:56:54;15.80;99.90
34829;DHT22;21042;47.620;12.188;2022-09-09T10:59:43;15.80;99.90
34829;DHT22;21042;47.620;12.188;2022-09-09T11:02:30;15.80;99.90
34829;DHT22;21042;47.620;12.188;2022-09-09T11:05:02;15.80;99.90
34829;DHT22;21042;47.620;12.188;2022-09-09T11:07:40;15.90;99.90
34829;DHT22;21042;47.620;12.188;2022-09-09T11:12:53;15.80;99.90
34829;DHT22;21042;47.620;12.188;2022-09-09T11:15:45;15.80;99.90
34829;DHT22;21042;47.620;12.188;2022-09-09T11:18:20;15.70;99.90
34829;DHT22;21042;47.620;12.188;2022-09-09T11:20:51;15.70;99.90
34829;DHT22;21042;47.620;12.188;2022-09-09T11:23:29;15.70;99.90
34829;DHT22;21042;47.620;12.188;2022-09-09T11:26:00;15.70;99.90
34829;DHT22;21042;47.620;12.188;2022-09-09T11:34:43;15.60;99.90
34829;DHT22;21042;47.620;12.188;2022-09-09T11:42:34;15.60;99.90
34829;DHT22;21042;47.620;12.188;2022-09-09T11:45:23;15.70;99.90
34829;DHT22;21042;47.620;12.188;2022-09-09T11:47:59;15.70;99.90
34829;DHT22;21042;47.620;12.188;2022-09-09T11:50:29;15.70;99.90
34829;DHT22;21042;47.620;12.188;2022-09-09T11:53:20;15.60;99.90
34829;DHT22;21042;47.620;12.188;2022-09-09T11:56:02;15.60;99.90
34829;DHT22;21042;47.620;12.188;2022-09-09T11:58:36;15.80;99.90
34829;DHT22;21042;47.620;12.188;2022-09-09T12:01:14;16.10;99.90
34829;DHT22;21042;47.620;12.188;2022-09-09T12:03:48;16.20;99.90
34829;DHT22;21042;47.620;12.188;2022-09-09T12:06:30;16.30;99.90
34829;DHT22;21042;47.620;12.188;2022-09-09T12:09:07;16.40;99.90
34829;DHT22;21042;47.620;12.188;2022-09-09T12:11:34;16.40;99.90
34829;DHT22;21042;47.620;12.188;2022-09-09T12:14:01;16.50;99.90
34829;DHT22;21042;47.620;12.188;2022-09-09T12:16:33;16.50;99.90
34829;DHT22;21042;47.620;12.188;2022-09-09T12:19:12;16.40;99.90
34829;DHT22;21042;47.620;12.188;2022-09-09T12:22:01;16.40;99.90
34829;DHT22;21042;47.620;12.188;2022-09-09T12:25:03;16.40;99.90
34829;DHT22;21042;47.620;12.188;2022-09-09T12:31:01;16.50;99.90
34829;DHT22;21042;47.620;12.188;2022-09-09T12:33:37;16.40;99.90
34829;DHT22;21042;47.620;12.188;2022-09-09T12:36:04;16.50;99.90
34829;DHT22;21042;47.620;12.188;2022-09-09T12:38:37;16.50;99.90
34829;DHT22;21042;47.620;12.188;2022-09-09T12:41:05;16.60;99.90
34829;DHT22;21042;47.620;12.188;2022-09-09T12:43:32;16.70;99.90
34829;DHT22;21042;47.620;12.188;2022-09-09T12:46:10;16.60;99.90
34829;DHT22;21042;47.620;12.188;2022-09-09T12:48:44;16.50;99.90
34829;DHT22;21042;47.620;12.188;2022-09-09T12:51:30;16.40;99.90
34829;DHT22;21042;47.620;12.188;2022-09-09T12:53:58;16.30;99.90
34829;DHT22;21042;47.620;12.188;2022-09-09T12:56:28;16.20;99.90
34829;DHT22;21042;47.620;12.188;2022-09-09T12:58:58;16.10;99.90
34829;DHT22;21042;47.620;12.188;2022-09-09T13:03:56;16.00;99.90
34829;DHT22;21042;47.620;12.188;2022-09-09T13:06:28;15.90;99.90
34829;DHT22;21042;47.620;12.188;2022-09-09T13:08:59;15.80;99.90
34829;DHT22;21042;47.620;12.188;2022-09-09T13:11:36;15.80;99.90
34829;DHT22;21042;47.620;12.188;2022-09-09T13:14:05;15.70;99.90
34829;DHT22;21042;47.620;12.188;2022-09-09T13:16:34;15.70;99.90
34829;DHT22;21042;47.620;12.188;2022-09-09T13:19:13;15.60;99.90
34829;DHT22;21042;47.620;12.188;2022-09-09T13:21:41;15.60;99.90
34829;DHT22;21042;47.620;12.188;2022-09-09T13:24:31;15.60;99.90
34829;DHT22;21042;47.620;12.188;2022-09-09T13:29:29;15.70;99.90
34829;DHT22;21042;47.620;12.188;2022-09-09T13:32:06;15.70;99.90
34829;DHT22;21042;47.620;12.188;2022-09-09T13:34:35;15.70;99.90
34829;DHT22;21042;47.620;12.188;2022-09-09T13:37:07;15.80;99.90
34829;DHT22;21042;47.620;12.188;2022-09-09T13:39:51;15.90;99.90
34829;DHT22;21042;47.620;12.188;2022-09-09T13:42:25;15.90;99.90
34829;DHT22;21042;47.620;12.188;2022-09-09T13:44:53;16.00;99.90
34829;DHT22;21042;47.620;12.188;2022-09-09T13:47:30;16.00;99.90
34829;DHT22;21042;47.620;12.188;2022-09-09T13:49:58;16.20;99.90
34829;DHT22;21042;47.620;12.188;2022-09-09T13:52:26;16.30;99.90
34829;DHT22;21042;47.620;12.188;2022-09-09T13:54:53;16.40;99.90
34829;DHT22;21042;47.620;12.188;2022-09-09T13:57:24;16.40;99.90
34829;DHT22;21042;47.620;12.188;2022-09-09T13:59:53;16.40;99.90
34829;DHT22;21042;47.620;12.188;2022-09-09T14:02:36;16.50;99.90
34829;DHT22;21042;47.620;12.188;2022-09-09T14:05:05;16.60;99.90
34829;DHT22;21042;47.620;12.188;2022-09-09T14:07:32;16.70;99.90
34829;DHT22;21042;47.620;12.188;2022-09-09T14:09:59;16.80;99.90
34829;DHT22;21042;47.620;12.188;2022-09-09T14:12:27;16.90;99.90
34829;DHT22;21042;47.620;12.188;2022-09-09T14:14:53;17.00;99.90
34829;DHT22;21042;47.620;12.188;2022-09-09T14:17:20;17.20;99.90
34829;DHT22;21042;47.620;12.188;2022-09-09T14:19:48;17.30;99.90
34829;DHT22;21042;47.620;12.188;2022-09-09T14:22:15;17.30;99.90
34829;DHT22;21042;47.620;12.188;2022-09-09T14:24:41;17.40;99.90
34829;DHT22;21042;47.620;12.188;2022-09-09T14:27:08;17.40;99.90
34829;DHT22;21042;47.620;12.188;2022-09-09T14:29:35;17.50;99.90
34829;DHT22;21042;47.620;12.188;2022-09-09T14:32:02;17.30;99.90
34829;DHT22;21042;47.620;12.188;2022-09-09T14:34:28;17.20;99.90
34829;DHT22;21042;47.620;12.188;2022-09-09T14:36:55;17.10;99.90
34829;DHT22;21042;47.620;12.188;2022-09-09T14:39:22;17.10;99.90
34829;DHT22;21042;47.620;12.188;2022-09-09T14:41:48;16.80;99.90
34829;DHT22;21042;47.620;12.188;2022-09-09T14:44:15;16.80;99.90
34829;DHT22;21042;47.620;12.188;2022-09-09T14:46:42;16.80;99.90
34829;DHT22;21042;47.620;12.188;2022-09-09T14:49:09;16.80;99.90
34829;DHT22;21042;47.620;12.188;2022-09-09T14:51:39;16.70;99.90
34829;DHT22;21042;47.620;12.188;2022-09-09T14:54:05;16.70;99.90
34829;DHT22;21042;47.620;12.188;2022-09-09T14:56:33;16.70;99.90
34829;DHT22;21042;47.620;12.188;2022-09-09T14:59:03;16.60;99.90
34829;DHT22;21042;47.620;12.188;2022-09-09T15:01:30;16.50;99.90
34829;DHT22;21042;47.620;12.188;2022-09-09T15:03:59;16.40;99.90
34829;DHT22;21042;47.620;12.188;2022-09-09T15:06:30;16.50;99.90
34829;DHT22;21042;47.620;12.188;2022-09-09T15:08:58;16.40;99.90
34829;DHT22;21042;47.620;12.188;2022-09-09T15:11:29;16.40;99.90
34829;DHT22;21042;47.620;12.188;2022-09-09T15:13:57;16.50;99.90
34829;DHT22;21042;47.620;12.188;2022-09-09T15:16:26;16.60;99.90
34829;DHT22;21042;47.620;12.188;2022-09-09T15:18:56;16.70;99.90
34829;DHT22;21042;47.620;12.188;2022-09-09T15:21:25;16.70;99.90
34829;DHT22;21042;47.620;12.188;2022-09-09T15:23:52;16.70;99.90
34829;DHT22;21042;47.620;12.188;2022-09-09T15:26:19;16.80;99.90
34829;DHT22;21042;47.620;12.188;2022-09-09T15:28:48;16.80;99.90
34829;DHT22;21042;47.620;12.188;2022-09-09T15:31:21;16.80;99.90
34829;DHT22;21042;47.620;12.188;2022-09-09T15:33:53;17.00;99.90
34829;DHT22;21042;47.620;12.188;2022-09-09T15:36:21;17.10;99.90
34829;DHT22;21042;47.620;12.188;2022-09-09T15:38:48;17.20;99.90
34829;DHT22;21042;47.620;12.188;2022-09-09T15:41:16;17.10;99.90
34829;DHT22;21042;47.620;12.188;2022-09-09T15:43:44;17.10;99.90
34829;DHT22;21042;47.620;12.188;2022-09-09T15:49:03;16.80;99.90
34829;DHT22;21042;47.620;12.188;2022-09-09T15:51:30;16.60;99.90
34829;DHT22;21042;47.620;12.188;2022-09-09T15:54:10;16.40;99.90
34829;DHT22;21042;47.620;12.188;2022-09-09T15:56:38;16.40;99.90
34829;DHT22;21042;47.620;12.188;2022-09-09T15:59:05;16.30;99.90
34829;DHT22;21042;47.620;12.188;2022-09-09T16:01:32;16.20;99.90
34829;DHT22;21042;47.620;12.188;2022-09-09T16:03:59;16.20;99.90
34829;DHT22;21042;47.620;12.188;2022-09-09T16:06:28;16.10;99.90
34829;DHT22;21042;47.620;12.188;2022-09-09T16:08:56;16.10;99.90
34829;DHT22;21042;47.620;12.188;2022-09-09T16:11:29;16.00;99.90
34829;DHT22;21042;47.620;12.188;2022-09-09T16:13:57;16.00;99.90
34829;DHT22;21042;47.620;12.188;2022-09-09T16:16:27;15.90;99.90
34829;DHT22;21042;47.620;12.188;2022-09-09T16:18:57;15.90;99.90
34829;DHT22;21042;47.620;12.188;2022-09-09T16:21:29;15.90;99.90
34829;DHT22;21042;47.620;12.188;2022-09-09T16:23:58;15.90;99.90
34829;DHT22;21042;47.620;12.188;2022-09-09T16:26:32;15.90;99.90
34829;DHT22;21042;47.620;12.188;2022-09-09T16:29:00;15.90;99.90
34829;DHT22;21042;47.620;12.188;2022-09-09T16:31:28;15.80;99.90
34829;DHT22;21042;47.620;12.188;2022-09-09T16:33:55;15.70;99.90
34829;DHT22;21042;47.620;12.188;2022-09-09T16:36:24;15.70;99.90
34829;DHT22;21042;47.620;12.188;2022-09-09T16:38:53;15.60;99.90
34829;DHT22;21042;47.620;12.188;2022-09-09T16:41:21;15.50;99.90
34829;DHT22;21042;47.620;12.188;2022-09-09T16:43:52;15.50;99.90
34829;DHT22;21042;47.620;12.188;2022-09-09T16:46:20;15.40;99.90
34829;DHT22;21042;47.620;12.188;2022-09-09T16:48:48;15.40;99.90
34829;DHT22;21042;47.620;12.188;2022-09-09T16:51:29;15.40;99.90
34829;DHT22;21042;47.620;12.188;2022-09-09T16:53:58;15.40;99.90
34829;DHT22;21042;47.620;12.188;2022-09-09T16:56:29;15.40;99.90
34829;DHT22;21042;47.620;12.188;2022-09-09T16:58:58;15.40;99.90
34829;DHT22;21042;47.620;12.188;2022-09-09T17:01:27;15.40;99.90
34829;DHT22;21042;47.620;12.188;2022-09-09T17:03:54;15.40;99.90
34829;DHT22;21042;47.620;12.188;2022-09-09T17:06:27;15.30;99.90
34829;DHT22;21042;47.620;12.188;2022-09-09T17:08:56;15.30;99.90
34829;DHT22;21042;47.620;12.188;2022-09-09T17:11:23;15.30;99.90
34829;DHT22;21042;47.620;12.188;2022-09-09T17:13:52;15.20;99.90
34829;DHT22;21042;47.620;12.188;2022-09-09T17:16:20;15.10;99.90
34829;DHT22;21042;47.620;12.188;2022-09-09T17:18:49;15.10;99.90
34829;DHT22;21042;47.620;12.188;2022-09-09T17:21:19;15.10;99.90
34829;DHT22;21042;47.620;12.188;2022-09-09T17:23:47;15.10;99.90
34829;DHT22;21042;47.620;12.188;2022-09-09T17:26:16;15.10;99.90
34829;DHT22;21042;47.620;12.188;2022-09-09T17:28:45;15.00;99.90
34829;DHT22;21042;47.620;12.188;2022-09-09T17:31:16;15.00;99.90
34829;DHT22;21042;47.620;12.188;2022-09-09T17:33:46;15.00;99.90
34829;DHT22;21042;47.620;12.188;2022-09-09T17:36:15;15.00;99.90
34829;DHT22;21042;47.620;12.188;2022-09-09T17:38:45;15.00;99.90
34829;DHT22;21042;47.620;12.188;2022-09-09T17:43:40;14.90;99.90
34829;DHT22;21042;47.620;12.188;2022-09-09T17:46:26;14.80;99.90
34829;DHT22;21042;47.620;12.188;2022-09-09T17:48:58;14.90;99.90
34829;DHT22;21042;47.620;12.188;2022-09-09T17:51:27;14.80;99.90
34829;DHT22;21042;47.620;12.188;2022-09-09T17:53:56;14.90;99.90
34829;DHT22;21042;47.620;12.188;2022-09-09T17:56:26;14.80;99.90
34829;DHT22;21042;47.620;12.188;2022-09-09T17:58:54;14.80;99.90